Rhonestern — CQLF — position and weather

sailwx.info

Track history (hours):
 
Tides and Currents Weather Stations Pressure Air Temp Water Temp Dewpoint Dewpoint Depression Visibility Wind Speed Wind Dir Waves Ship Positions

Rhonestern

Last reported at 2018-Feb-18 05:29 UTC. Time now 2018-Feb-18 05:37 UTC.
Position N 43°24' W 003°07'.

Length 162 m; draft 6.8 m.

Type: Tanker. MMSI: 254899958.

Date/timePositionNaut miles runAvg speedWind from/ knotsBaromVisibWave heightAir tempDewpointWater temp
2018-Feb-18 05:29N 43°24' W 003°07'0 0.0
2018-Feb-18 04:59N 43°24' W 003°07'0 0.0
2018-Feb-18 04:29N 43°24' W 003°07'0 0.0
2018-Feb-18 03:58N 43°24' W 003°07'0 0.0
2018-Feb-18 03:28N 43°24' W 003°07'0 0.0
2018-Feb-18 02:58N 43°24' W 003°07'0 0.0
2018-Feb-18 02:28N 43°24' W 003°07'0 0.0
2018-Feb-18 01:58N 43°24' W 003°07'0 0.0
2018-Feb-18 01:30N 43°24' W 003°07'0 0.0
2018-Feb-18 01:00N 43°24' W 003°07'0 0.0
2018-Feb-18 00:30N 43°24' W 003°07'0 0.0
2018-Feb-18 00:00N 43°24' W 003°07'0 0.0
2018-Feb-17 23:29N 43°24' W 003°07'0 0.0
2018-Feb-17 22:59N 43°24' W 003°07'0 0.0
2018-Feb-17 22:26N 43°24' W 003°07'0 0.2
2018-Feb-17 22:00N 43°24' W 003°07'3 6.4
2018-Feb-17 21:30N 43°27' W 003°08'612.8
2018-Feb-17 21:00N 43°33' W 003°10'612.7
2018-Feb-17 20:30N 43°39' W 003°13'22912.2
2018-Feb-17 01:48N 47°12' W 005°11'311.5
2018-Feb-17 01:30N 47°16' W 005°13'611.4
2018-Feb-17 01:00N 47°21' W 005°16'611.3
2018-Feb-17 00:28N 47°27' W 005°20'611.9
2018-Feb-16 23:55N 47°33' W 005°23'612.5
2018-Feb-16 23:26N 47°38' W 005°26'512.4
2018-Feb-16 22:59N 47°43' W 005°29'1012.6
2018-Feb-16 22:13N 47°52' W 005°34'312.9
2018-Feb-16 21:57N 47°56' W 005°36'613.0
2018-Feb-16 21:30N 48°01' W 005°40'713.0
2018-Feb-16 20:57N 48°08' W 005°43'812.9
2018-Feb-16 20:21N 48°15' W 005°47'2311.9
2018-Feb-16 18:25N 48°37' W 005°59'510.7
2018-Feb-16 17:56N 48°41' W 005°56'610.3
2018-Feb-16 17:22N 48°47' W 005°52'410.1
2018-Feb-16 16:58N 48°50' W 005°49'5 9.8
2018-Feb-16 16:29N 48°54' W 005°45'10 9.6
2018-Feb-16 15:27N 48°59' W 005°32'8 9.8
2018-Feb-16 14:38N 49°04' W 005°22'410.0
2018-Feb-16 14:12N 49°06' W 005°16'1711.3
2018-Feb-16 12:39N 49°15' W 004°54'212.0
2018-Feb-16 12:30N 49°16' W 004°51'6412.2
2018-Feb-16 07:18N 49°48' W 003°26'310.5
2018-Feb-16 06:59N 49°50' W 003°22'510.4
2018-Feb-16 06:30N 49°53' W 003°16'610.4
2018-Feb-16 05:56N 49°56' W 003°08'410.7
2018-Feb-16 05:30N 49°57' W 003°01'611.3
2018-Feb-16 05:00N 49°59' W 002°53'611.9
2018-Feb-16 04:30N 50°01' W 002°44'712.8
2018-Feb-16 03:59N 50°03' W 002°34'1814.3
2018-Feb-16 02:43N 50°08' W 002°07'315.2
2018-Feb-16 02:30N 50°09' W 002°02'815.4
2018-Feb-16 02:01N 50°11' W 001°51'815.4
2018-Feb-16 01:30N 50°14' W 001°40'714.8
2018-Feb-16 01:00N 50°15' W 001°28'714.3
2018-Feb-16 00:30N 50°17' W 001°18'3511.4
2018-Feb-15 21:26N 50°27' W 000°25'4 9.5
2018-Feb-15 20:58N 50°28' W 000°18'510.2
2018-Feb-15 20:30N 50°29' W 000°11'510.5
2018-Feb-15 20:00N 50°31' W 000°03'510.7
2018-Feb-15 19:30N 50°32' E 000°05'611.4
2018-Feb-15 19:00N 50°34' E 000°14'611.7
2018-Feb-15 18:31N 50°35' E 000°23'612.0
2018-Feb-15 18:00N 50°37' E 000°32'612.9
2018-Feb-15 17:30N 50°40' E 000°40'713.3
2018-Feb-15 17:00N 50°44' E 000°48'713.2
2018-Feb-15 16:30N 50°49' E 000°57'612.9
2018-Feb-15 16:00N 50°52' E 001°05'612.5
2018-Feb-15 15:30N 50°56' E 001°13'712.2
2018-Feb-15 14:56N 51°01' E 001°21'511.5
2018-Feb-15 14:30N 51°04' E 001°27'510.5
2018-Feb-15 14:00N 51°07' E 001°33'5 9.7
2018-Feb-15 13:30N 51°10' E 001°39'5 9.9
2018-Feb-15 13:00N 51°14' E 001°46'510.2
2018-Feb-15 12:31N 51°18' E 001°50'510.4
2018-Feb-15 12:00N 51°22' E 001°55'5 9.5
2018-Feb-15 11:30N 51°24' E 002°02'611.4
2018-Feb-15 11:01N 51°22' E 002°10'611.0
2018-Feb-15 10:30N 51°20' E 002°18'611.1
2018-Feb-15 10:00N 51°22' E 002°27'611.6
2018-Feb-15 09:30N 51°23' E 002°36'612.1
2018-Feb-15 09:01N 51°22' E 002°46'612.3
2018-Feb-15 08:30N 51°23' E 002°56'612.4
2018-Feb-15 08:00N 51°24' E 003°05'612.9
2018-Feb-15 07:30N 51°25' E 003°16'713.4
2018-Feb-15 07:00N 51°25' E 003°26'612.6
2018-Feb-15 06:30N 51°26' E 003°36'4 9.2
2018-Feb-15 06:00N 51°24' E 003°43'4 7.9
2018-Feb-15 05:30N 51°20' E 003°46'0 0.0
2018-Feb-15 04:58N 51°20' E 003°46'0 0.0
2018-Feb-15 04:24N 51°20' E 003°46'0 0.0
2018-Feb-15 04:00N 51°20' E 003°46'0 0.0
2018-Feb-15 03:30N 51°20' E 003°46'0 0.0
2018-Feb-15 02:54N 51°20' E 003°46'0 0.0
2018-Feb-15 02:30N 51°20' E 003°46'0 0.0
2018-Feb-15 01:59N 51°20' E 003°46'0 0.0
2018-Feb-15 01:29N 51°20' E 003°46'0 0.0
2018-Feb-15 00:59N 51°20' E 003°46'0 0.0
2018-Feb-15 00:29N 51°20' E 003°46'0 0.0
2018-Feb-14 23:52N 51°20' E 003°46'0 0.0
2018-Feb-14 23:28N 51°20' E 003°46'0 0.0
2018-Feb-14 22:58N 51°20' E 003°46'0 0.0
2018-Feb-14 22:28N 51°20' E 003°46'0 0.0
2018-Feb-14 21:52N 51°20' E 003°46'0 0.0
2018-Feb-14 21:27N 51°20' E 003°46'0 0.0
2018-Feb-14 21:00N 51°20' E 003°46'0 0.0
2018-Feb-14 20:27N 51°20' E 003°46'0 0.0
2018-Feb-14 19:57N 51°20' E 003°46'0 0.0
2018-Feb-14 19:30N 51°20' E 003°46'0 0.0
2018-Feb-14 18:56N 51°20' E 003°46'0 0.0
2018-Feb-14 18:29N 51°20' E 003°46'0 0.0
2018-Feb-14 17:44N 51°20' E 003°46'0 0.0
2018-Feb-14 17:26N 51°20' E 003°46'0 0.0
2018-Feb-14 16:55N 51°20' E 003°46'0 0.0
2018-Feb-14 16:28N 51°20' E 003°46'0 0.0
2018-Feb-14 15:55N 51°20' E 003°46'0 0.0
2018-Feb-14 15:25N 51°20' E 003°46'0 0.0
2018-Feb-14 14:58N 51°20' E 003°46'0 0.0
2018-Feb-14 14:30N 51°20' E 003°46'0 0.0
2018-Feb-14 14:00N 51°20' E 003°46'0 0.0
2018-Feb-14 13:27N 51°20' E 003°46'0 0.0
2018-Feb-14 13:00N 51°20' E 003°46'0 0.0
2018-Feb-14 12:26N 51°20' E 003°46'0 0.0
2018-Feb-14 11:53N 51°20' E 003°46'0 0.0
2018-Feb-14 11:29N 51°20' E 003°46'0 0.0
2018-Feb-14 10:59N 51°20' E 003°46'0 0.0
2018-Feb-14 10:29N 51°20' E 003°46'0 0.0
2018-Feb-14 09:55N 51°20' E 003°46'0 0.0
2018-Feb-14 09:28N 51°20' E 003°46'0 0.0
2018-Feb-14 08:49N 51°20' E 003°46'0 0.0
2018-Feb-14 08:22N 51°20' E 003°46'0 0.0
2018-Feb-14 07:58N 51°20' E 003°46'0 0.0
2018-Feb-14 07:27N 51°20' E 003°46'0 0.0
2018-Feb-14 06:57N 51°20' E 003°46'0 0.0
2018-Feb-14 06:24N 51°20' E 003°46'0 0.0
2018-Feb-14 05:57N 51°20' E 003°46'0 0.0
2018-Feb-14 05:26N 51°20' E 003°46'0 0.0
2018-Feb-14 04:50N 51°20' E 003°46'0 0.0
2018-Feb-14 04:26N 51°20' E 003°46'0 0.0
2018-Feb-14 03:53N 51°20' E 003°46'0 0.0
2018-Feb-14 03:26N 51°20' E 003°46'0 0.0
2018-Feb-14 02:58N 51°20' E 003°46'0 0.0
2018-Feb-14 02:28N 51°20' E 003°46'0 0.0
2018-Feb-14 01:43N 51°20' E 003°46'0 0.0
2018-Feb-14 01:28N 51°20' E 003°46'0 0.0
2018-Feb-14 01:01N 51°20' E 003°46'0 0.0
2018-Feb-14 00:30N 51°20' E 003°46'0 0.0
2018-Feb-14 00:00N 51°20' E 003°46'0 0.0
2018-Feb-13 23:30N 51°20' E 003°46'0 0.0
2018-Feb-13 23:00N 51°20' E 003°46'0 0.0
2018-Feb-13 22:29N 51°20' E 003°46'0 0.0
2018-Feb-13 22:00N 51°20' E 003°46'0 0.0
2018-Feb-13 21:29N 51°20' E 003°46'0 0.0
2018-Feb-13 20:59N 51°20' E 003°46'0 0.0
2018-Feb-13 20:29N 51°20' E 003°46'0 0.0
2018-Feb-13 19:52N 51°20' E 003°46'0 0.0
2018-Feb-13 19:28N 51°20' E 003°46'0 0.0
2018-Feb-13 18:52N 51°20' E 003°46'0 0.0
2018-Feb-13 18:28N 51°20' E 003°46'0 0.0
2018-Feb-13 17:58N 51°20' E 003°46'0 0.0
2018-Feb-13 17:30N 51°20' E 003°46'1 2.3
2018-Feb-13 17:00N 51°22' E 003°46'3 6.6
2018-Feb-13 16:30N 51°24' E 003°43'4 7.2
2018-Feb-13 16:00N 51°26' E 003°38'4 8.8
2018-Feb-13 15:30N 51°25' E 003°31'5 9.7
2018-Feb-13 15:00N 51°24' E 003°23'510.3
2018-Feb-13 14:30N 51°25' E 003°15'611.3
2018-Feb-13 14:00N 51°24' E 003°06'611.2
2018-Feb-13 13:30N 51°23' E 002°57'612.0
2018-Feb-13 13:00N 51°22' E 002°48'510.5
2018-Feb-13 12:30N 51°24' E 002°40'2 4.0
2018-Feb-13 12:00N 51°24' E 002°37'1 1.1
2018-Feb-13 11:31N 51°24' E 002°36'0 0.1
2018-Feb-13 11:00N 51°24' E 002°36'0 0.0
2018-Feb-13 10:30N 51°24' E 002°36'0 0.1
2018-Feb-13 10:00N 51°24' E 002°36'0 0.0
2018-Feb-13 09:30N 51°24' E 002°36'0 0.0
2018-Feb-13 08:57N 51°24' E 002°36'0 0.1
2018-Feb-13 08:29N 51°24' E 002°36'0 0.2
2018-Feb-13 07:59N 51°24' E 002°36'0 0.1
2018-Feb-13 07:29N 51°24' E 002°36'0 0.0
2018-Feb-13 06:59N 51°24' E 002°36'0 0.1
2018-Feb-13 06:28N 51°24' E 002°36'0 0.1
2018-Feb-13 05:46N 51°24' E 002°36'0 0.0
2018-Feb-13 05:13N 51°24' E 002°36'0 0.1
2018-Feb-13 04:58N 51°24' E 002°36'0 0.1
2018-Feb-13 04:30N 51°24' E 002°36'0 0.1
2018-Feb-13 04:00N 51°24' E 002°36'0 0.0
2018-Feb-13 03:30N 51°24' E 002°36'0 0.0
2018-Feb-13 02:51N 51°24' E 002°36'0 0.0
2018-Feb-13 02:18N 51°24' E 002°36'0 0.0
2018-Feb-13 01:59N 51°24' E 002°36'0 0.0
2018-Feb-13 01:26N 51°24' E 002°36'0 0.0
2018-Feb-13 00:59N 51°24' E 002°36'0 0.0
2018-Feb-13 00:20N 51°24' E 002°36'0 0.0
2018-Feb-12 23:59N 51°24' E 002°36'0 0.0
2018-Feb-12 23:10N 51°24' E 002°36'0 0.0
2018-Feb-12 22:58N 51°24' E 002°36'0 0.0
2018-Feb-12 22:16N 51°24' E 002°36'0 0.0
2018-Feb-12 21:58N 51°24' E 002°36'0 0.0
2018-Feb-12 21:31N 51°24' E 002°36'0 0.0
2018-Feb-12 20:54N 51°24' E 002°36'0 0.4
2018-Feb-12 20:30N 51°24' E 002°36'0 0.2
2018-Feb-12 20:00N 51°24' E 002°36'0 0.1
2018-Feb-12 19:27N 51°24' E 002°36'0 0.0
2018-Feb-12 18:59N 51°24' E 002°36'0 0.0
2018-Feb-12 18:26N 51°24' E 002°36'0 0.0
2018-Feb-12 17:44N 51°24' E 002°36'0 0.1
2018-Feb-12 17:26N 51°24' E 002°36'0 0.2
2018-Feb-12 16:59N 51°24' E 002°36'0 0.1
2018-Feb-12 16:28N 51°24' E 002°36'0 0.1
2018-Feb-12 15:55N 51°24' E 002°36'0 0.0
2018-Feb-12 15:13N 51°24' E 002°36'0 0.0
2018-Feb-12 14:46N 51°24' E 002°36'0 0.0
2018-Feb-12 14:27N 51°24' E 002°36'0 0.0
2018-Feb-12 13:57N 51°24' E 002°36'0 0.0
2018-Feb-12 13:30N 51°24' E 002°36'0 0.0
2018-Feb-12 13:00N 51°24' E 002°36'0 0.0
2018-Feb-12 12:30N 51°24' E 002°36'0 0.0
2018-Feb-12 11:59N 51°24' E 002°36'0 0.0
2018-Feb-12 11:26N 51°24' E 002°36'0 0.1
2018-Feb-12 10:26N 51°24' E 002°36'0 0.1
2018-Feb-12 09:59N 51°24' E 002°36'0 0.1
2018-Feb-12 09:25N 51°24' E 002°36'0 0.1
2018-Feb-12 08:58N 51°24' E 002°36'0 0.1
2018-Feb-12 08:28N 51°24' E 002°36'0 0.1
2018-Feb-12 07:52N 51°24' E 002°36'0 0.0
2018-Feb-12 07:30N 51°24' E 002°36'0 0.1
2018-Feb-12 06:59N 51°24' E 002°36'2 3.5
2018-Feb-12 06:30N 51°23' E 002°33'5 9.9
2018-Feb-12 06:00N 51°21' E 002°26'510.2
2018-Feb-12 05:30N 51°19' E 002°19'510.2
2018-Feb-12 05:00N 51°17' E 002°12'510.4
2018-Feb-12 04:30N 51°14' E 002°05'510.3
2018-Feb-12 04:00N 51°11' E 001°57'510.4
2018-Feb-12 03:30N 51°09' E 001°50'510.2
2018-Feb-12 03:00N 51°05' E 001°44'510.5
2018-Feb-12 02:30N 51°01' E 001°39'610.9
2018-Feb-12 02:00N 50°58' E 001°32'611.1
2018-Feb-12 01:30N 50°53' E 001°27'611.2
2018-Feb-12 01:00N 50°48' E 001°24'711.3
2018-Feb-12 00:22N 50°41' E 001°20'511.8
2018-Feb-11 23:57N 50°38' E 001°14'1311.7
2018-Feb-11 22:50N 50°30' E 000°58'611.5
2018-Feb-11 22:18N 50°28' E 000°49'1711.5
2018-Feb-11 20:52N 50°24' E 000°24'411.7
2018-Feb-11 20:30N 50°23' E 000°17'611.9
2018-Feb-11 20:00N 50°22' E 000°08'612.0
2018-Feb-11 19:30N 50°20' W 000°00'612.5
2018-Feb-11 19:00N 50°18' W 000°10'612.8
2018-Feb-11 18:30N 50°16' W 000°20'3813.2
2018-Feb-11 15:35N 50°06' W 001°17'113.0
2018-Feb-11 15:29N 50°06' W 001°19'612.6
2018-Feb-11 15:00N 50°04' W 001°28'612.4
2018-Feb-11 14:30N 50°03' W 001°38'611.8
2018-Feb-11 14:00N 50°02' W 001°47'611.3
2018-Feb-11 13:30N 49°60' W 001°55'510.8
2018-Feb-11 13:00N 49°58' W 002°03'510.5
2018-Feb-11 12:29N 49°57' W 002°11'1810.3
2018-Feb-11 10:42N 49°52' W 002°39'310.4
2018-Feb-11 10:26N 49°51' W 002°43'410.4
2018-Feb-11 10:00N 49°49' W 002°49'1110.8
2018-Feb-11 09:00N 49°46' W 003°05'510.9
2018-Feb-11 08:30N 49°43' W 003°13'10411.4
2018-Feb-10 23:23N 48°50' W 005°30'3911.5
2018-Feb-10 19:57N 48°16' W 006°02'2911.0
2018-Feb-10 17:19N 47°51' W 006°23'510.8
2018-Feb-10 16:49N 47°46' W 006°26'410.8
2018-Feb-10 16:27N 47°43' W 006°29'  
2018-Feb-08 09:00N 39°12' W 009°57'23 9.0
2018-Feb-08 06:30N 38°49' W 009°57'9 8.8
2018-Feb-08 05:30N 38°40' W 009°56'  
Track history (hours):
 
Tides and Currents Weather Stations Pressure Air Temp Water Temp Dewpoint Dewpoint Depression Visibility Wind Speed Wind Dir Waves Ship Positions

Rhonestern

Last reported at 2018-Feb-18 05:29 UTC. Time now 2018-Feb-18 05:37 UTC.
Position N 43°24' W 003°07'.

Length 162 m; draft 6.8 m.

Type: Tanker. MMSI: 254899958.

Date/timePositionNaut miles runAvg speedWind from/ knotsBaromVisibWave heightAir tempDewpointWater temp
2018-Feb-18 05:29N 43°24' W 003°07'0 0.0
2018-Feb-18 04:59N 43°24' W 003°07'0 0.0
2018-Feb-18 04:29N 43°24' W 003°07'0 0.0
2018-Feb-18 03:58N 43°24' W 003°07'0 0.0
2018-Feb-18 03:28N 43°24' W 003°07'0 0.0
2018-Feb-18 02:58N 43°24' W 003°07'0 0.0
2018-Feb-18 02:28N 43°24' W 003°07'0 0.0
2018-Feb-18 01:58N 43°24' W 003°07'0 0.0
2018-Feb-18 01:30N 43°24' W 003°07'0 0.0
2018-Feb-18 01:00N 43°24' W 003°07'0 0.0
2018-Feb-18 00:30N 43°24' W 003°07'0 0.0
2018-Feb-18 00:00N 43°24' W 003°07'0 0.0
2018-Feb-17 23:29N 43°24' W 003°07'0 0.0
2018-Feb-17 22:59N 43°24' W 003°07'0 0.0
2018-Feb-17 22:26N 43°24' W 003°07'0 0.2
2018-Feb-17 22:00N 43°24' W 003°07'3 6.4
2018-Feb-17 21:30N 43°27' W 003°08'612.8
2018-Feb-17 21:00N 43°33' W 003°10'612.7
2018-Feb-17 20:30N 43°39' W 003°13'22912.2
2018-Feb-17 01:48N 47°12' W 005°11'311.5
2018-Feb-17 01:30N 47°16' W 005°13'611.4
2018-Feb-17 01:00N 47°21' W 005°16'611.3
2018-Feb-17 00:28N 47°27' W 005°20'611.9
2018-Feb-16 23:55N 47°33' W 005°23'612.5
2018-Feb-16 23:26N 47°38' W 005°26'512.4
2018-Feb-16 22:59N 47°43' W 005°29'1012.6
2018-Feb-16 22:13N 47°52' W 005°34'312.9
2018-Feb-16 21:57N 47°56' W 005°36'613.0
2018-Feb-16 21:30N 48°01' W 005°40'713.0
2018-Feb-16 20:57N 48°08' W 005°43'812.9
2018-Feb-16 20:21N 48°15' W 005°47'2311.9
2018-Feb-16 18:25N 48°37' W 005°59'510.7
2018-Feb-16 17:56N 48°41' W 005°56'610.3
2018-Feb-16 17:22N 48°47' W 005°52'410.1
2018-Feb-16 16:58N 48°50' W 005°49'5 9.8
2018-Feb-16 16:29N 48°54' W 005°45'10 9.6
2018-Feb-16 15:27N 48°59' W 005°32'8 9.8
2018-Feb-16 14:38N 49°04' W 005°22'410.0
2018-Feb-16 14:12N 49°06' W 005°16'1711.3
2018-Feb-16 12:39N 49°15' W 004°54'212.0
2018-Feb-16 12:30N 49°16' W 004°51'6412.2
2018-Feb-16 07:18N 49°48' W 003°26'310.5
2018-Feb-16 06:59N 49°50' W 003°22'510.4
2018-Feb-16 06:30N 49°53' W 003°16'610.4
2018-Feb-16 05:56N 49°56' W 003°08'410.7
2018-Feb-16 05:30N 49°57' W 003°01'611.3
2018-Feb-16 05:00N 49°59' W 002°53'611.9
2018-Feb-16 04:30N 50°01' W 002°44'712.8
2018-Feb-16 03:59N 50°03' W 002°34'1814.3
2018-Feb-16 02:43N 50°08' W 002°07'315.2
2018-Feb-16 02:30N 50°09' W 002°02'815.4
2018-Feb-16 02:01N 50°11' W 001°51'815.4
2018-Feb-16 01:30N 50°14' W 001°40'714.8
2018-Feb-16 01:00N 50°15' W 001°28'714.3
2018-Feb-16 00:30N 50°17' W 001°18'3511.4
2018-Feb-15 21:26N 50°27' W 000°25'4 9.5
2018-Feb-15 20:58N 50°28' W 000°18'510.2
2018-Feb-15 20:30N 50°29' W 000°11'510.5
2018-Feb-15 20:00N 50°31' W 000°03'510.7
2018-Feb-15 19:30N 50°32' E 000°05'611.4
2018-Feb-15 19:00N 50°34' E 000°14'611.7
2018-Feb-15 18:31N 50°35' E 000°23'612.0
2018-Feb-15 18:00N 50°37' E 000°32'612.9
2018-Feb-15 17:30N 50°40' E 000°40'713.3
2018-Feb-15 17:00N 50°44' E 000°48'713.2
2018-Feb-15 16:30N 50°49' E 000°57'612.9
2018-Feb-15 16:00N 50°52' E 001°05'612.5
2018-Feb-15 15:30N 50°56' E 001°13'712.2
2018-Feb-15 14:56N 51°01' E 001°21'511.5
2018-Feb-15 14:30N 51°04' E 001°27'510.5
2018-Feb-15 14:00N 51°07' E 001°33'5 9.7
2018-Feb-15 13:30N 51°10' E 001°39'5 9.9
2018-Feb-15 13:00N 51°14' E 001°46'510.2
2018-Feb-15 12:31N 51°18' E 001°50'510.4
2018-Feb-15 12:00N 51°22' E 001°55'5 9.5
2018-Feb-15 11:30N 51°24' E 002°02'611.4
2018-Feb-15 11:01N 51°22' E 002°10'611.0
2018-Feb-15 10:30N 51°20' E 002°18'611.1
2018-Feb-15 10:00N 51°22' E 002°27'611.6
2018-Feb-15 09:30N 51°23' E 002°36'612.1
2018-Feb-15 09:01N 51°22' E 002°46'612.3
2018-Feb-15 08:30N 51°23' E 002°56'612.4
2018-Feb-15 08:00N 51°24' E 003°05'612.9
2018-Feb-15 07:30N 51°25' E 003°16'713.4
2018-Feb-15 07:00N 51°25' E 003°26'612.6
2018-Feb-15 06:30N 51°26' E 003°36'4 9.2
2018-Feb-15 06:00N 51°24' E 003°43'4 7.9
2018-Feb-15 05:30N 51°20' E 003°46'0 0.0
2018-Feb-15 04:58N 51°20' E 003°46'0 0.0
2018-Feb-15 04:24N 51°20' E 003°46'0 0.0
2018-Feb-15 04:00N 51°20' E 003°46'0 0.0
2018-Feb-15 03:30N 51°20' E 003°46'0 0.0
2018-Feb-15 02:54N 51°20' E 003°46'0 0.0
2018-Feb-15 02:30N 51°20' E 003°46'0 0.0
2018-Feb-15 01:59N 51°20' E 003°46'0 0.0
2018-Feb-15 01:29N 51°20' E 003°46'0 0.0
2018-Feb-15 00:59N 51°20' E 003°46'0 0.0
2018-Feb-15 00:29N 51°20' E 003°46'0 0.0
2018-Feb-14 23:52N 51°20' E 003°46'0 0.0
2018-Feb-14 23:28N 51°20' E 003°46'0 0.0
2018-Feb-14 22:58N 51°20' E 003°46'0 0.0
2018-Feb-14 22:28N 51°20' E 003°46'0 0.0
2018-Feb-14 21:52N 51°20' E 003°46'0 0.0
2018-Feb-14 21:27N 51°20' E 003°46'0 0.0
2018-Feb-14 21:00N 51°20' E 003°46'0 0.0
2018-Feb-14 20:27N 51°20' E 003°46'0 0.0
2018-Feb-14 19:57N 51°20' E 003°46'0 0.0
2018-Feb-14 19:30N 51°20' E 003°46'0 0.0
2018-Feb-14 18:56N 51°20' E 003°46'0 0.0
2018-Feb-14 18:29N 51°20' E 003°46'0 0.0
2018-Feb-14 17:44N 51°20' E 003°46'0 0.0
2018-Feb-14 17:26N 51°20' E 003°46'0 0.0
2018-Feb-14 16:55N 51°20' E 003°46'0 0.0
2018-Feb-14 16:28N 51°20' E 003°46'0 0.0
2018-Feb-14 15:55N 51°20' E 003°46'0 0.0
2018-Feb-14 15:25N 51°20' E 003°46'0 0.0
2018-Feb-14 14:58N 51°20' E 003°46'0 0.0
2018-Feb-14 14:30N 51°20' E 003°46'0 0.0
2018-Feb-14 14:00N 51°20' E 003°46'0 0.0
2018-Feb-14 13:27N 51°20' E 003°46'0 0.0
2018-Feb-14 13:00N 51°20' E 003°46'0 0.0
2018-Feb-14 12:26N 51°20' E 003°46'0 0.0
2018-Feb-14 11:53N 51°20' E 003°46'0 0.0
2018-Feb-14 11:29N 51°20' E 003°46'0 0.0
2018-Feb-14 10:59N 51°20' E 003°46'0 0.0
2018-Feb-14 10:29N 51°20' E 003°46'0 0.0
2018-Feb-14 09:55N 51°20' E 003°46'0 0.0
2018-Feb-14 09:28N 51°20' E 003°46'0 0.0
2018-Feb-14 08:49N 51°20' E 003°46'0 0.0
2018-Feb-14 08:22N 51°20' E 003°46'0 0.0
2018-Feb-14 07:58N 51°20' E 003°46'0 0.0
2018-Feb-14 07:27N 51°20' E 003°46'0 0.0
2018-Feb-14 06:57N 51°20' E 003°46'0 0.0
2018-Feb-14 06:24N 51°20' E 003°46'0 0.0
2018-Feb-14 05:57N 51°20' E 003°46'0 0.0
2018-Feb-14 05:26N 51°20' E 003°46'0 0.0
2018-Feb-14 04:50N 51°20' E 003°46'0 0.0
2018-Feb-14 04:26N 51°20' E 003°46'0 0.0
2018-Feb-14 03:53N 51°20' E 003°46'0 0.0
2018-Feb-14 03:26N 51°20' E 003°46'0 0.0
2018-Feb-14 02:58N 51°20' E 003°46'0 0.0
2018-Feb-14 02:28N 51°20' E 003°46'0 0.0
2018-Feb-14 01:43N 51°20' E 003°46'0 0.0
2018-Feb-14 01:28N 51°20' E 003°46'0 0.0
2018-Feb-14 01:01N 51°20' E 003°46'0 0.0
2018-Feb-14 00:30N 51°20' E 003°46'0 0.0
2018-Feb-14 00:00N 51°20' E 003°46'0 0.0
2018-Feb-13 23:30N 51°20' E 003°46'0 0.0
2018-Feb-13 23:00N 51°20' E 003°46'0 0.0
2018-Feb-13 22:29N 51°20' E 003°46'0 0.0
2018-Feb-13 22:00N 51°20' E 003°46'0 0.0
2018-Feb-13 21:29N 51°20' E 003°46'0 0.0
2018-Feb-13 20:59N 51°20' E 003°46'0 0.0
2018-Feb-13 20:29N 51°20' E 003°46'0 0.0
2018-Feb-13 19:52N 51°20' E 003°46'0 0.0
2018-Feb-13 19:28N 51°20' E 003°46'0 0.0
2018-Feb-13 18:52N 51°20' E 003°46'0 0.0
2018-Feb-13 18:28N 51°20' E 003°46'0 0.0
2018-Feb-13 17:58N 51°20' E 003°46'0 0.0
2018-Feb-13 17:30N 51°20' E 003°46'1 2.3
2018-Feb-13 17:00N 51°22' E 003°46'3 6.6
2018-Feb-13 16:30N 51°24' E 003°43'4 7.2
2018-Feb-13 16:00N 51°26' E 003°38'4 8.8
2018-Feb-13 15:30N 51°25' E 003°31'5 9.7
2018-Feb-13 15:00N 51°24' E 003°23'510.3
2018-Feb-13 14:30N 51°25' E 003°15'611.3
2018-Feb-13 14:00N 51°24' E 003°06'611.2
2018-Feb-13 13:30N 51°23' E 002°57'612.0
2018-Feb-13 13:00N 51°22' E 002°48'510.5
2018-Feb-13 12:30N 51°24' E 002°40'2 4.0
2018-Feb-13 12:00N 51°24' E 002°37'1 1.1
2018-Feb-13 11:31N 51°24' E 002°36'0 0.1
2018-Feb-13 11:00N 51°24' E 002°36'0 0.0
2018-Feb-13 10:30N 51°24' E 002°36'0 0.1
2018-Feb-13 10:00N 51°24' E 002°36'0 0.0
2018-Feb-13 09:30N 51°24' E 002°36'0 0.0
2018-Feb-13 08:57N 51°24' E 002°36'0 0.1
2018-Feb-13 08:29N 51°24' E 002°36'0 0.2
2018-Feb-13 07:59N 51°24' E 002°36'0 0.1
2018-Feb-13 07:29N 51°24' E 002°36'0 0.0
2018-Feb-13 06:59N 51°24' E 002°36'0 0.1
2018-Feb-13 06:28N 51°24' E 002°36'0 0.1
2018-Feb-13 05:46N 51°24' E 002°36'0 0.0
2018-Feb-13 05:13N 51°24' E 002°36'0 0.1
2018-Feb-13 04:58N 51°24' E 002°36'0 0.1
2018-Feb-13 04:30N 51°24' E 002°36'0 0.1
2018-Feb-13 04:00N 51°24' E 002°36'0 0.0
2018-Feb-13 03:30N 51°24' E 002°36'0 0.0
2018-Feb-13 02:51N 51°24' E 002°36'0 0.0
2018-Feb-13 02:18N 51°24' E 002°36'0 0.0
2018-Feb-13 01:59N 51°24' E 002°36'0 0.0
2018-Feb-13 01:26N 51°24' E 002°36'0 0.0
2018-Feb-13 00:59N 51°24' E 002°36'0 0.0
2018-Feb-13 00:20N 51°24' E 002°36'0 0.0
2018-Feb-12 23:59N 51°24' E 002°36'0 0.0
2018-Feb-12 23:10N 51°24' E 002°36'0 0.0
2018-Feb-12 22:58N 51°24' E 002°36'0 0.0
2018-Feb-12 22:16N 51°24' E 002°36'0 0.0
2018-Feb-12 21:58N 51°24' E 002°36'0 0.0
2018-Feb-12 21:31N 51°24' E 002°36'0 0.0
2018-Feb-12 20:54N 51°24' E 002°36'0 0.4
2018-Feb-12 20:30N 51°24' E 002°36'0 0.2
2018-Feb-12 20:00N 51°24' E 002°36'0 0.1
2018-Feb-12 19:27N 51°24' E 002°36'0 0.0
2018-Feb-12 18:59N 51°24' E 002°36'0 0.0
2018-Feb-12 18:26N 51°24' E 002°36'0 0.0
2018-Feb-12 17:44N 51°24' E 002°36'0 0.1
2018-Feb-12 17:26N 51°24' E 002°36'0 0.2
2018-Feb-12 16:59N 51°24' E 002°36'0 0.1
2018-Feb-12 16:28N 51°24' E 002°36'0 0.1
2018-Feb-12 15:55N 51°24' E 002°36'0 0.0
2018-Feb-12 15:13N 51°24' E 002°36'0 0.0
2018-Feb-12 14:46N 51°24' E 002°36'0 0.0
2018-Feb-12 14:27N 51°24' E 002°36'0 0.0
2018-Feb-12 13:57N 51°24' E 002°36'0 0.0
2018-Feb-12 13:30N 51°24' E 002°36'0 0.0
2018-Feb-12 13:00N 51°24' E 002°36'0 0.0
2018-Feb-12 12:30N 51°24' E 002°36'0 0.0
2018-Feb-12 11:59N 51°24' E 002°36'0 0.0
2018-Feb-12 11:26N 51°24' E 002°36'0 0.1
2018-Feb-12 10:26N 51°24' E 002°36'0 0.1
2018-Feb-12 09:59N 51°24' E 002°36'0 0.1
2018-Feb-12 09:25N 51°24' E 002°36'0 0.1
2018-Feb-12 08:58N 51°24' E 002°36'0 0.1
2018-Feb-12 08:28N 51°24' E 002°36'0 0.1
2018-Feb-12 07:52N 51°24' E 002°36'0 0.0
2018-Feb-12 07:30N 51°24' E 002°36'0 0.1
2018-Feb-12 06:59N 51°24' E 002°36'2 3.5
2018-Feb-12 06:30N 51°23' E 002°33'5 9.9
2018-Feb-12 06:00N 51°21' E 002°26'510.2
2018-Feb-12 05:30N 51°19' E 002°19'510.2
2018-Feb-12 05:00N 51°17' E 002°12'510.4
2018-Feb-12 04:30N 51°14' E 002°05'510.3
2018-Feb-12 04:00N 51°11' E 001°57'510.4
2018-Feb-12 03:30N 51°09' E 001°50'510.2
2018-Feb-12 03:00N 51°05' E 001°44'510.5
2018-Feb-12 02:30N 51°01' E 001°39'610.9
2018-Feb-12 02:00N 50°58' E 001°32'611.1
2018-Feb-12 01:30N 50°53' E 001°27'611.2
2018-Feb-12 01:00N 50°48' E 001°24'711.3
2018-Feb-12 00:22N 50°41' E 001°20'511.8
2018-Feb-11 23:57N 50°38' E 001°14'1311.7
2018-Feb-11 22:50N 50°30' E 000°58'611.5
2018-Feb-11 22:18N 50°28' E 000°49'1711.5
2018-Feb-11 20:52N 50°24' E 000°24'411.7
2018-Feb-11 20:30N 50°23' E 000°17'611.9
2018-Feb-11 20:00N 50°22' E 000°08'612.0
2018-Feb-11 19:30N 50°20' W 000°00'612.5
2018-Feb-11 19:00N 50°18' W 000°10'612.8
2018-Feb-11 18:30N 50°16' W 000°20'3813.2
2018-Feb-11 15:35N 50°06' W 001°17'113.0
2018-Feb-11 15:29N 50°06' W 001°19'612.6
2018-Feb-11 15:00N 50°04' W 001°28'612.4
2018-Feb-11 14:30N 50°03' W 001°38'611.8
2018-Feb-11 14:00N 50°02' W 001°47'611.3
2018-Feb-11 13:30N 49°60' W 001°55'510.8
2018-Feb-11 13:00N 49°58' W 002°03'510.5
2018-Feb-11 12:29N 49°57' W 002°11'1810.3
2018-Feb-11 10:42N 49°52' W 002°39'310.4
2018-Feb-11 10:26N 49°51' W 002°43'410.4
2018-Feb-11 10:00N 49°49' W 002°49'1110.8
2018-Feb-11 09:00N 49°46' W 003°05'510.9
2018-Feb-11 08:30N 49°43' W 003°13'10411.4
2018-Feb-10 23:23N 48°50' W 005°30'3911.5
2018-Feb-10 19:57N 48°16' W 006°02'2911.0
2018-Feb-10 17:19N 47°51' W 006°23'510.8
2018-Feb-10 16:49N 47°46' W 006°26'410.8
2018-Feb-10 16:27N 47°43' W 006°29'  
2018-Feb-08 09:00N 39°12' W 009°57'23 9.0
2018-Feb-08 06:30N 38°49' W 009°57'9 8.8
2018-Feb-08 05:30N 38°40' W 009°56'  

Dump ship's entire track history